Time;durP1;ratioP1;P1;durP2;ratioP2;P2;SDS_P1;SDS_P2;PMS_P1;PMS_P2;Temp;Humidity;BMP_temperature;BMP_pressure;BME280_temperature;BME280_humidity;BME280_pressure;Samples;Min_cycle;Max_cycle;Signal;HPM_P1;HPM_P2
2023/12/18 00:01:14;;;;;;;13.50;9.50;;;;;;;4.70;100.00;101161.05;107981;1255;71507;-67
2023/12/18 00:03:41;;;;;;;12.90;9.40;;;;;;;4.67;100.00;101161.79;108120;1256;61138;-67
2023/12/18 00:06:09;;;;;;;13.20;9.10;;;;;;;4.68;100.00;101166.15;107970;1256;61137;-67
2023/12/18 00:08:37;;;;;;;13.80;9.20;;;;;;;4.69;100.00;101170.91;108039;1255;73471;-66
2023/12/18 00:11:04;;;;;;;13.30;9.20;;;;;;;4.69;100.00;101170.54;107877;1256;71883;-66
2023/12/18 00:13:32;;;;;;;12.50;8.90;;;;;;;4.70;100.00;101164.96;108097;1257;71422;-66
2023/12/18 00:16:00;;;;;;;12.50;8.90;;;;;;;4.70;100.00;101166.52;108071;1257;61362;-66
2023/12/18 00:18:28;;;;;;;13.50;9.10;;;;;;;4.70;100.00;101167.23;107993;1257;60069;-67
2023/12/18 00:20:56;;;;;;;12.50;8.70;;;;;;;4.70;100.00;101164.48;108086;1257;73368;-68
2023/12/18 00:23:24;;;;;;;12.70;8.70;;;;;;;4.69;100.00;101158.94;108071;1256;72667;-67
2023/12/18 00:25:51;;;;;;;12.10;8.20;;;;;;;4.68;100.00;101146.81;108028;1258;72682;-68
2023/12/18 00:28:19;;;;;;;10.60;7.50;;;;;;;4.69;100.00;101158.53;108131;1256;61216;-68
2023/12/18 00:30:47;;;;;;;11.90;8.60;;;;;;;4.69;100.00;101161.34;108098;1256;61105;-68
2023/12/18 00:33:15;;;;;;;11.50;8.50;;;;;;;4.69;100.00;101156.45;108078;1256;73635;-65
2023/12/18 00:35:43;;;;;;;10.40;7.30;;;;;;;4.71;100.00;101140.98;107999;1256;72748;-68
2023/12/18 00:38:11;;;;;;;10.80;7.60;;;;;;;4.75;100.00;101127.48;108144;1256;72642;-67
2023/12/18 00:40:38;;;;;;;10.10;7.20;;;;;;;4.78;100.00;101123.23;108154;1256;61291;-67
2023/12/18 00:43:06;;;;;;;10.50;7.20;;;;;;;4.79;100.00;101122.22;107963;1255;61024;-68
2023/12/18 00:45:34;;;;;;;11.40;7.40;;;;;;;4.79;100.00;101125.96;107962;1257;74709;-67
2023/12/18 00:48:01;;;;;;;10.80;7.40;;;;;;;4.82;100.00;101119.08;108096;1257;72456;-67
2023/12/18 00:50:29;;;;;;;9.90;6.60;;;;;;;4.83;100.00;101110.48;108021;1255;72234;-67
2023/12/18 00:52:57;;;;;;;9.50;6.40;;;;;;;4.84;100.00;101104.06;107966;1257;61266;-67
2023/12/18 00:55:24;;;;;;;8.70;6.20;;;;;;;4.86;100.00;101105.42;107965;1255;61793;-67
2023/12/18 00:57:52;;;;;;;9.80;6.40;;;;;;;4.88;100.00;101094.80;108006;1255;74661;-67
2023/12/18 01:00:21;;;;;;;10.40;6.90;;;;;;;4.90;100.00;101096.30;108135;1256;71565;-68
2023/12/18 01:02:49;;;;;;;8.30;5.90;;;;;;;4.91;100.00;101098.83;108076;1258;72404;-68
2023/12/18 01:05:16;;;;;;;9.10;6.20;;;;;;;4.92;100.00;101099.03;108084;1255;61313;-67
2023/12/18 01:07:45;;;;;;;8.70;5.50;;;;;;;4.92;100.00;101093.48;108033;1256;61184;-67
2023/12/18 01:10:35;;;;;;;7.90;5.70;;;;;;;4.92;100.00;101103.17;107933;1257;76760;-67
2023/12/18 01:13:17;;;;;;;8.30;5.70;;;;;;;4.93;100.00;101110.09;107953;1257;73017;-67
2023/12/18 01:15:45;;;;;;;7.60;5.60;;;;;;;4.93;100.00;101105.54;107908;1257;71655;-67
2023/12/18 01:18:12;;;;;;;8.60;6.10;;;;;;;4.94;100.00;101095.04;108061;1255;61145;-68
2023/12/18 01:20:40;;;;;;;8.60;5.90;;;;;;;4.94;100.00;101091.13;108047;1255;61705;-66
2023/12/18 01:23:08;;;;;;;7.80;5.80;;;;;;;4.97;100.00;101087.66;108018;1256;74790;-67
2023/12/18 01:25:38;;;;;;;7.40;5.40;;;;;;;4.98;100.00;101088.04;108128;1256;72501;-67
2023/12/18 01:28:06;;;;;;;8.20;5.80;;;;;;;4.99;100.00;101085.53;108001;1256;71418;-66
2023/12/18 01:30:34;;;;;;;8.90;5.70;;;;;;;5.00;100.00;101070.96;108106;1256;61130;-66
2023/12/18 01:33:01;;;;;;;8.20;6.10;;;;;;;5.00;100.00;101077.52;108018;1256;61253;-68
2023/12/18 01:35:29;;;;;;;8.40;5.80;;;;;;;5.00;100.00;101084.99;108043;1255;73495;-68
2023/12/18 01:37:57;;;;;;;9.20;6.50;;;;;;;5.00;100.00;101085.62;108031;1259;70498;-67
2023/12/18 01:40:24;;;;;;;8.80;6.20;;;;;;;5.00;100.00;101078.95;108012;1255;72390;-69
2023/12/18 01:42:52;;;;;;;8.90;6.60;;;;;;;5.00;100.00;101068.32;108002;1259;61307;-68
2023/12/18 01:45:20;;;;;;;8.70;6.30;;;;;;;5.00;100.00;101054.91;108042;1255;61221;-68
2023/12/18 01:47:47;;;;;;;9.80;6.90;;;;;;;5.01;100.00;101048.86;107934;1256;76413;-67
2023/12/18 01:50:15;;;;;;;11.10;7.40;;;;;;;5.00;100.00;101052.64;107860;1256;71644;-67
2023/12/18 01:52:43;;;;;;;10.20;7.00;;;;;;;4.99;100.00;101046.13;108078;1256;72716;-67
2023/12/18 01:55:10;;;;;;;10.00;7.40;;;;;;;4.96;100.00;101033.54;107943;1256;61121;-66
2023/12/18 01:57:38;;;;;;;9.90;6.80;;;;;;;4.96;100.00;101025.39;107957;1257;60032;-66
2023/12/18 02:00:06;;;;;;;10.30;7.40;;;;;;;4.93;100.00;101019.41;107782;1256;74652;-67
2023/12/18 02:02:34;;;;;;;11.70;7.50;;;;;;;4.94;100.00;101015.95;108195;1257;72786;-67
2023/12/18 02:05:02;;;;;;;11.60;8.40;;;;;;;4.94;100.00;101016.89;107866;1256;72670;-68
2023/12/18 02:07:29;;;;;;;11.30;7.70;;;;;;;4.94;100.00;101019.33;107960;1255;61142;-67
2023/12/18 02:09:57;;;;;;;12.20;7.70;;;;;;;4.96;100.00;101015.08;107878;1255;261733;-67
2023/12/18 02:12:24;;;;;;;11.20;7.20;;;;;;;4.96;100.00;101016.20;108021;1256;74682;-67
2023/12/18 02:14:56;;;;;;;13.40;8.50;;;;;;;4.94;100.00;101024.59;107952;1257;72711;-67
2023/12/18 02:17:23;;;;;;;12.60;8.30;;;;;;;4.94;100.00;101027.08;107995;1256;71061;-67
2023/12/18 02:20:04;;;;;;;13.60;8.80;;;;;;;4.96;100.00;101021.27;108108;1256;61157;-65
2023/12/18 02:22:50;;;;;;;12.00;8.60;;;;;;;4.98;100.00;101023.80;108063;1256;60522;-67
2023/12/18 02:25:18;;;;;;;13.50;8.60;;;;;;;4.99;100.00;101033.65;108133;1256;73755;-67
2023/12/18 02:27:46;;;;;;;12.20;8.60;;;;;;;5.00;100.00;101029.70;107817;1256;73864;-67
2023/12/18 02:30:15;;;;;;;13.20;8.50;;;;;;;5.00;100.00;101011.66;107942;1256;72659;-67
2023/12/18 02:32:43;;;;;;;14.10;8.80;;;;;;;5.01;100.00;101005.70;107958;1256;59818;-66
2023/12/18 02:35:10;;;;;;;15.40;10.00;;;;;;;5.02;100.00;101011.16;107890;1255;61227;-66
2023/12/18 02:37:38;;;;;;;14.20;9.80;;;;;;;5.04;100.00;101008.15;108091;1257;73385;-67
2023/12/18 02:40:07;;;;;;;13.30;9.30;;;;;;;5.06;100.00;101010.21;107924;1256;71741;-67
2023/12/18 02:42:34;;;;;;;15.40;10.60;;;;;;;5.08;100.00;101008.45;108068;1256;72703;-66
2023/12/18 02:45:02;;;;;;;15.50;10.60;;;;;;;5.10;100.00;101012.48;107956;1256;59900;-67
2023/12/18 02:47:30;;;;;;;15.90;11.00;;;;;;;5.13;100.00;101024.77;108074;1257;59972;-66
2023/12/18 02:49:58;;;;;;;15.00;10.40;;;;;;;5.14;100.00;101029.54;107999;1257;74673;-66
2023/12/18 02:52:25;;;;;;;14.40;9.90;;;;;;;5.17;100.00;101036.16;107970;1257;71419;-66
2023/12/18 02:54:53;;;;;;;16.20;11.20;;;;;;;5.20;100.00;101051.38;107804;1256;72727;-66
2023/12/18 02:57:20;;;;;;;14.40;10.20;;;;;;;5.17;100.00;101057.30;108111;1256;61126;-68
2023/12/18 02:59:48;;;;;;;17.30;11.30;;;;;;;5.17;100.00;101057.38;107950;1255;61180;-66
2023/12/18 03:02:15;;;;;;;15.70;10.40;;;;;;;5.20;100.00;101061.09;108054;1257;74586;-66
2023/12/18 03:04:43;;;;;;;15.80;10.70;;;;;;;5.20;100.00;101059.30;107950;1256;71511;-67
2023/12/18 03:07:11;;;;;;;17.50;11.50;;;;;;;5.20;100.00;101058.61;107922;1255;72626;-67
2023/12/18 03:09:38;;;;;;;15.10;10.10;;;;;;;5.19;100.00;101053.91;107930;1257;61464;-66
2023/12/18 03:12:06;;;;;;;16.20;11.30;;;;;;;5.19;100.00;101053.91;108008;1256;59884;-66
2023/12/18 03:14:33;;;;;;;15.50;10.60;;;;;;;5.20;100.00;101056.77;108162;1255;73477;-66
2023/12/18 03:17:01;;;;;;;16.10;10.90;;;;;;;5.19;100.00;101050.86;108147;1257;72757;-66
2023/12/18 03:19:29;;;;;;;15.60;11.00;;;;;;;5.19;100.00;101047.92;108080;1256;72728;-66
2023/12/18 03:21:56;;;;;;;15.60;10.20;;;;;;;5.21;100.00;101051.06;108037;1256;61285;-66
2023/12/18 03:24:24;;;;;;;16.50;11.90;;;;;;;5.23;100.00;101047.10;108255;1255;60080;-65
2023/12/18 03:26:52;;;;;;;19.40;12.30;;;;;;;5.22;100.00;101041.20;107911;1259;74624;-66
2023/12/18 03:29:20;;;;;;;16.10;10.40;;;;;;;5.22;100.00;101042.17;107965;1256;71366;-67
2023/12/18 03:31:47;;;;;;;17.60;12.00;;;;;;;5.24;100.00;101040.95;108095;1255;72865;-68
2023/12/18 03:34:15;;;;;;;16.90;11.70;;;;;;;5.25;100.00;101038.09;108080;1256;60853;-67
2023/12/18 03:36:43;;;;;;;15.60;10.70;;;;;;;5.26;100.00;101034.77;108012;1260;61241;-67
2023/12/18 03:39:10;;;;;;;14.40;10.20;;;;;;;5.29;100.00;101028.27;108058;1255;74859;-66
2023/12/18 03:41:38;;;;;;;17.20;11.00;;;;;;;5.29;100.00;101021.08;107959;1256;71251;-68
2023/12/18 03:44:05;;;;;;;17.30;11.40;;;;;;;5.29;100.00;101021.12;108119;1257;72650;-67
2023/12/18 03:46:33;;;;;;;18.20;12.50;;;;;;;5.31;100.00;101020.34;108085;1260;61126;-66
2023/12/18 03:49:00;;;;;;;17.20;11.20;;;;;;;5.33;100.00;101015.32;107939;1255;61035;-67
2023/12/18 03:51:29;;;;;;;16.30;10.60;;;;;;;5.34;100.00;101018.61;108023;1259;74110;-67
2023/12/18 03:53:56;;;;;;;17.60;11.20;;;;;;;5.36;100.00;101012.56;107990;1257;71814;-68
2023/12/18 03:56:24;;;;;;;15.30;10.60;;;;;;;5.37;100.00;101003.89;108016;1259;72500;-67
2023/12/18 03:58:51;;;;;;;16.40;11.10;;;;;;;5.39;100.00;100998.21;108094;1257;61266;-66
2023/12/18 04:01:19;;;;;;;17.40;11.10;;;;;;;5.38;100.00;100997.04;108144;1255;60271;-67
2023/12/18 04:03:46;;;;;;;19.60;12.50;;;;;;;5.35;100.00;101001.01;108020;1257;72646;-67
2023/12/18 04:06:14;;;;;;;17.40;11.70;;;;;;;5.34;100.00;101005.24;107974;1257;71472;-67
2023/12/18 04:08:42;;;;;;;17.80;11.60;;;;;;;5.31;100.00;100998.45;107970;1256;72702;-68
2023/12/18 04:11:16;;;;;;;19.00;12.50;;;;;;;5.26;100.00;100993.46;108028;1255;61257;-68
2023/12/18 04:13:43;;;;;;;19.90;13.10;;;;;;;5.22;100.00;100994.34;108052;1255;61144;-67
2023/12/18 04:16:11;;;;;;;17.70;12.00;;;;;;;5.19;100.00;100987.50;108006;1255;73441;-67
2023/12/18 04:18:38;;;;;;;18.40;12.40;;;;;;;5.19;100.00;100978.05;108019;1256;72886;-67
2023/12/18 04:21:06;;;;;;;18.10;12.50;;;;;;;5.21;100.00;100972.59;108063;1255;71459;-67
2023/12/18 04:23:34;;;;;;;16.60;11.20;;;;;;;5.23;100.00;100967.77;108048;1256;61247;-67
2023/12/18 04:26:02;;;;;;;18.20;11.70;;;;;;;5.27;100.00;100964.77;108089;1256;61238;-67
2023/12/18 04:28:30;;;;;;;18.30;12.20;;;;;;;5.29;100.00;100962.44;107971;1256;72380;-67
2023/12/18 04:30:57;;;;;;;20.10;12.40;;;;;;;5.29;100.00;100957.51;108011;1256;72823;-67
2023/12/18 04:33:25;;;;;;;18.80;12.10;;;;;;;5.30;100.00;100957.17;108150;1256;71674;-66
2023/12/18 04:35:53;;;;;;;18.70;11.80;;;;;;;5.34;100.00;100953.54;108106;1257;61150;-66
2023/12/18 04:38:21;;;;;;;18.90;12.70;;;;;;;5.35;100.00;100964.94;108059;1256;61078;-67
2023/12/18 04:40:48;;;;;;;19.30;13.10;;;;;;;5.35;100.00;100965.34;108019;1257;75081;-67
2023/12/18 04:43:16;;;;;;;18.20;11.50;;;;;;;5.34;100.00;100970.98;108091;1256;71169;-67
2023/12/18 04:45:44;;;;;;;18.10;11.90;;;;;;;5.33;100.00;100980.14;108099;1257;72734;-67
2023/12/18 04:48:11;;;;;;;18.30;12.20;;;;;;;5.31;100.00;100976.16;107937;1255;61243;-67
2023/12/18 04:50:39;;;;;;;19.10;12.30;;;;;;;5.30;100.00;100971.13;107907;1256;61583;-67
2023/12/18 04:53:07;;;;;;;20.50;12.70;;;;;;;5.31;100.00;100962.67;107911;1257;73348;-67
2023/12/18 04:55:34;;;;;;;19.90;13.70;;;;;;;5.33;100.00;100964.26;107985;1257;71594;-67
2023/12/18 04:58:02;;;;;;;23.30;13.40;;;;;;;5.35;100.00;100963.58;108074;1257;72292;-67
2023/12/18 05:00:30;;;;;;;21.20;13.50;;;;;;;5.36;100.00;100963.27;107992;1255;61949;-67
2023/12/18 05:02:58;;;;;;;19.40;12.70;;;;;;;5.37;100.00;100956.41;108025;1257;60388;-67
2023/12/18 05:05:26;;;;;;;20.60;13.50;;;;;;;5.38;100.00;100959.77;107932;1256;73935;-67
2023/12/18 05:07:53;;;;;;;21.30;13.20;;;;;;;5.37;100.00;100960.11;107908;1257;71726;-67
2023/12/18 05:10:21;;;;;;;24.50;14.40;;;;;;;5.34;100.00;100960.10;108043;1256;71669;-67
2023/12/18 05:12:48;;;;;;;27.10;15.70;;;;;;;5.33;100.00;100951.38;108001;1257;61250;-67
2023/12/18 05:15:17;;;;;;;22.40;14.30;;;;;;;5.35;100.00;100944.57;108041;1256;59023;-67
2023/12/18 05:17:45;;;;;;;22.70;14.40;;;;;;;5.35;100.00;100948.55;108048;1257;73298;-68
2023/12/18 05:20:12;;;;;;;22.90;14.30;;;;;;;5.34;100.00;100949.42;107992;1257;72695;-66
2023/12/18 05:22:40;;;;;;;25.40;14.90;;;;;;;5.32;100.00;100949.88;107977;1257;71511;-67
2023/12/18 05:25:08;;;;;;;24.20;14.60;;;;;;;5.34;100.00;100954.35;107911;1257;60458;-67
2023/12/18 05:27:36;;;;;;;21.30;14.10;;;;;;;5.33;100.00;100962.27;108114;1256;61220;-67
2023/12/18 05:30:05;;;;;;;21.90;14.00;;;;;;;5.30;100.00;100967.24;107919;1256;73519;-67
2023/12/18 05:32:32;;;;;;;22.40;14.20;;;;;;;5.27;100.00;100966.36;108045;1256;72746;-67
2023/12/18 05:35:00;;;;;;;23.30;14.40;;;;;;;5.25;100.00;100963.48;108065;1256;71362;-68
2023/12/18 05:37:28;;;;;;;25.10;15.00;;;;;;;5.25;100.00;100966.36;108011;1257;61193;-68
2023/12/18 05:39:56;;;;;;;23.10;15.40;;;;;;;5.24;100.00;100967.96;108059;1256;61694;-68
2023/12/18 05:42:23;;;;;;;27.50;16.50;;;;;;;5.22;100.00;100973.19;108061;1257;74565;-69
2023/12/18 05:44:51;;;;;;;29.40;18.00;;;;;;;5.21;100.00;100972.99;108122;1257;71641;-69
2023/12/18 05:47:19;;;;;;;26.80;16.80;;;;;;;5.19;100.00;100973.73;108035;1257;71438;-67
2023/12/18 05:49:46;;;;;;;28.70;17.40;;;;;;;5.21;100.00;100969.61;108080;1255;61271;-68
2023/12/18 05:52:19;;;;;;;25.50;15.80;;;;;;;5.24;100.00;100962.93;108097;1257;61007;-68
2023/12/18 05:54:46;;;;;;;24.50;15.90;;;;;;;5.26;100.00;100961.20;108098;1256;73453;-68
2023/12/18 05:57:16;;;;;;;24.40;15.70;;;;;;;5.27;100.00;100960.71;108088;1257;71424;-67
2023/12/18 05:59:45;;;;;;;25.20;15.70;;;;;;;5.27;100.00;100955.16;107993;1257;72720;-67
2023/12/18 06:02:13;;;;;;;25.70;15.60;;;;;;;5.29;100.00;100954.41;107937;1256;60923;-67
2023/12/18 06:04:43;;;;;;;25.60;16.00;;;;;;;5.30;100.00;100950.58;108124;1257;61233;-67
2023/12/18 06:07:11;;;;;;;24.30;15.30;;;;;;;5.31;100.00;100944.87;108112;1257;74352;-67
2023/12/18 06:09:39;;;;;;;23.30;14.20;;;;;;;5.34;100.00;100950.31;108038;1257;71626;-67
2023/12/18 06:12:07;;;;;;;23.70;15.50;;;;;;;5.35;100.00;100951.08;107955;1257;72680;-68
2023/12/18 06:14:35;;;;;;;23.40;14.00;;;;;;;5.36;100.00;100948.75;107917;1257;61102;-67
2023/12/18 06:17:03;;;;;;;24.10;14.80;;;;;;;5.38;100.00;100949.80;108048;1257;61157;-69
2023/12/18 06:19:31;;;;;;;23.20;14.10;;;;;;;5.38;100.00;100946.83;108028;1257;74650;-68
2023/12/18 06:21:59;;;;;;;22.00;13.80;;;;;;;5.40;100.00;100942.45;107891;1256;72458;-69
2023/12/18 06:24:26;;;;;;;19.50;13.60;;;;;;;5.41;100.00;100947.91;107938;1257;71670;-68
2023/12/18 06:26:54;;;;;;;19.10;13.20;;;;;;;5.40;100.00;100947.52;108019;1256;60081;-68
2023/12/18 06:29:22;;;;;;;19.90;13.50;;;;;;;5.43;100.00;100947.70;107966;1259;61240;-68
2023/12/18 06:31:50;;;;;;;19.80;12.70;;;;;;;5.44;100.00;100950.17;107997;1257;72935;-68
2023/12/18 06:34:18;;;;;;;21.60;14.30;;;;;;;5.45;100.00;100945.80;108143;1256;70856;-68
2023/12/18 06:36:46;;;;;;;17.80;12.10;;;;;;;5.47;100.00;100943.23;108068;1257;71448;-69
2023/12/18 06:39:13;;;;;;;19.20;12.40;;;;;;;5.50;100.00;100937.05;108095;1257;61099;-68
2023/12/18 06:41:41;;;;;;;20.50;12.50;;;;;;;5.52;100.00;100931.63;108051;1255;61553;-70
2023/12/18 06:44:09;;;;;;;20.20;13.30;;;;;;;5.53;100.00;100925.74;108051;1258;73487;-68
2023/12/18 06:46:36;;;;;;;20.20;14.10;;;;;;;5.54;100.00;100926.02;107975;1257;71444;-69
2023/12/18 06:49:04;;;;;;;21.70;14.90;;;;;;;5.54;100.00;100924.23;108001;1257;72474;-67
2023/12/18 06:51:32;;;;;;;20.60;14.10;;;;;;;5.54;100.00;100924.39;108006;1256;61159;-67
2023/12/18 06:53:59;;;;;;;22.40;15.40;;;;;;;5.56;100.00;100926.17;108003;1257;62646;-68
2023/12/18 06:56:27;;;;;;;22.70;16.50;;;;;;;5.58;100.00;100927.63;108022;1257;74597;-68
2023/12/18 06:58:55;;;;;;;25.00;17.00;;;;;;;5.58;100.00;100930.88;108024;1256;72739;-68
2023/12/18 07:01:22;;;;;;;21.30;14.50;;;;;;;5.60;100.00;100938.98;107808;1257;72237;-68
2023/12/18 07:03:51;;;;;;;25.00;17.20;;;;;;;5.60;100.00;100937.60;107964;1256;61145;-68
2023/12/18 07:06:19;;;;;;;25.40;17.60;;;;;;;5.59;100.00;100941.40;85505;1259;20002603;-67
2023/12/18 07:08:57;;;;;;;29.20;17.90;;;;;;;5.58;100.00;100941.32;107796;1257;75437;-68
2023/12/18 07:11:25;;;;;;;28.20;18.60;;;;;;;5.57;100.00;100939.02;107773;1258;71534;-67
2023/12/18 07:13:53;;;;;;;28.80;18.90;;;;;;;5.56;100.00;100938.48;107783;1257;72819;-68
2023/12/18 07:16:21;;;;;;;26.90;17.70;;;;;;;5.55;100.00;100935.02;107710;1257;61361;-67
2023/12/18 07:18:49;;;;;;;29.40;18.80;;;;;;;5.55;100.00;100931.88;107947;1255;61145;-68
2023/12/18 07:21:17;;;;;;;27.20;18.80;;;;;;;5.55;100.00;100933.31;107844;1255;75527;-67
2023/12/18 07:23:45;;;;;;;28.80;19.10;;;;;;;5.56;100.00;100937.50;107789;1257;71819;-68
2023/12/18 07:26:13;;;;;;;30.60;20.00;;;;;;;5.58;100.00;100934.89;107945;1257;70850;-68
2023/12/18 07:28:41;;;;;;;29.00;19.10;;;;;;;5.58;100.00;100933.42;107811;1259;63160;-67
2023/12/18 07:31:08;;;;;;;31.50;20.70;;;;;;;5.60;100.00;100932.92;107926;1258;59177;-68
2023/12/18 07:33:36;;;;;;;29.00;18.90;;;;;;;5.63;100.00;100935.70;107876;1260;74624;-69
2023/12/18 07:36:05;;;;;;;28.00;18.00;;;;;;;5.65;100.00;100939.06;107899;1259;71612;-68
2023/12/18 07:38:32;;;;;;;30.20;19.50;;;;;;;5.67;100.00;100937.48;107887;1257;72473;-68
2023/12/18 07:41:03;;;;;;;30.50;20.40;;;;;;;5.68;100.00;100938.35;107807;1257;61260;-67
2023/12/18 07:43:30;;;;;;;29.20;19.90;;;;;;;5.69;100.00;100937.29;107867;1256;61145;-67
2023/12/18 07:45:58;;;;;;;30.20;19.60;;;;;;;5.70;100.00;100933.61;107745;1257;74682;-68
2023/12/18 07:48:26;;;;;;;32.20;19.30;;;;;;;5.72;100.00;100943.98;108532;1257;72724;-69
2023/12/18 07:50:55;;;;;;;28.60;19.70;;;;;;;5.77;100.00;100945.96;107835;1257;71406;-70
2023/12/18 07:53:23;;;;;;;29.00;19.10;;;;;;;5.84;100.00;100950.11;108014;1257;60312;-68
2023/12/18 07:55:51;;;;;;;28.40;18.20;;;;;;;5.87;100.00;100947.84;107556;1256;61190;-69
2023/12/18 07:58:20;;;;;;;32.10;18.90;;;;;;;5.91;100.00;100949.69;107916;1255;72275;-68
2023/12/18 08:00:48;;;;;;;28.70;19.30;;;;;;;5.93;100.00;100956.42;107877;1255;72896;-68
2023/12/18 08:14:46;;;;;;;28.60;20.20;;;;;;;6.28;100.00;100949.27;98336;1279;10003075;-69
2023/12/18 08:17:15;;;;;;;29.20;20.10;;;;;;;6.48;100.00;100949.61;107199;1263;149872;-69
2023/12/18 08:19:47;;;;;;;30.80;19.80;;;;;;;6.38;100.00;100946.65;107157;1266;71117;-68
2023/12/18 08:22:15;;;;;;;28.80;19.70;;;;;;;6.28;100.00;100944.73;107424;1265;72553;-68
2023/12/18 08:24:42;;;;;;;31.70;20.20;;;;;;;6.21;100.00;100946.00;107238;1264;71421;-69
2023/12/18 08:27:10;;;;;;;27.50;18.70;;;;;;;6.15;100.00;100943.85;107280;1264;59557;-68
2023/12/18 08:29:39;;;;;;;27.10;19.10;;;;;;;6.10;100.00;100937.56;107776;1264;59101;-69
2023/12/18 08:32:07;;;;;;;30.60;19.70;;;;;;;6.05;100.00;100940.21;108155;1264;72366;-69
2023/12/18 08:34:35;;;;;;;30.40;20.10;;;;;;;6.01;100.00;100934.50;107200;1266;72174;-68
2023/12/18 08:37:03;;;;;;;30.80;19.10;;;;;;;5.98;100.00;100929.79;107279;1264;71434;-70
2023/12/18 08:39:32;;;;;;;31.00;20.00;;;;;;;5.96;100.00;100927.89;108048;1256;59583;-69
2023/12/18 08:41:59;;;;;;;34.40;20.60;;;;;;;5.97;100.00;100930.51;108051;1257;59851;-69
2023/12/18 08:44:27;;;;;;;31.40;20.80;;;;;;;5.97;100.00;100925.48;107829;1256;71837;-68
2023/12/18 08:46:54;;;;;;;33.80;20.00;;;;;;;5.98;100.00;100923.70;107764;1256;72693;-69
2023/12/18 08:49:22;;;;;;;32.70;21.00;;;;;;;6.01;100.00;100923.98;107807;1256;74732;-69
2023/12/18 08:51:50;;;;;;;31.90;20.40;;;;;;;6.04;100.00;100923.73;107809;1256;60646;-69
2023/12/18 08:54:18;;;;;;;28.70;19.60;;;;;;;6.07;100.00;100929.35;107813;1255;60622;-69
2023/12/18 08:56:47;;;;;;;29.90;19.60;;;;;;;6.07;100.00;100929.58;107989;1253;71824;-69
2023/12/18 08:59:15;;;;;;;30.40;18.90;;;;;;;6.08;100.00;100935.41;108036;1253;71318;-70
2023/12/18 09:01:43;;;;;;;36.20;21.50;;;;;;;6.04;100.00;100933.66;108571;1252;71860;-68
2023/12/18 09:04:10;;;;;;;29.60;20.10;;;;;;;6.04;100.00;100937.00;109220;1253;60681;-69
2023/12/18 09:06:39;;;;;;;32.90;21.60;;;;;;;6.02;100.00;100934.12;108111;1253;60431;-69
2023/12/18 09:09:07;;;;;;;33.90;22.30;;;;;;;6.02;100.00;100929.55;107910;1253;71767;-68
2023/12/18 09:11:35;;;;;;;34.30;21.70;;;;;;;6.02;100.00;100932.05;107918;1253;73068;-68
2023/12/18 09:14:03;;;;;;;31.60;20.80;;;;;;;6.00;100.00;100931.90;107861;1254;72066;-69
2023/12/18 09:16:31;;;;;;;30.70;20.30;;;;;;;5.99;100.00;100927.16;107847;1254;61757;-69
2023/12/18 09:18:58;;;;;;;31.70;20.30;;;;;;;5.98;100.00;100928.15;107913;1257;59523;-69
2023/12/18 09:21:27;;;;;;;34.80;21.80;;;;;;;5.96;100.00;100921.25;107892;1253;73131;-69
2023/12/18 09:23:54;;;;;;;32.30;20.30;;;;;;;5.94;100.00;100922.52;107894;1253;72880;-69
2023/12/18 09:26:22;;;;;;;33.20;20.70;;;;;;;5.96;100.00;100926.88;107875;1254;72800;-69
2023/12/18 09:28:49;;;;;;;36.50;22.40;;;;;;;5.98;100.00;100924.86;107943;1253;60546;-69
2023/12/18 09:31:17;;;;;;;37.90;21.80;;;;;;;5.97;100.00;100926.13;107930;1253;59822;-68
2023/12/18 09:33:46;;;;;;;37.00;22.00;;;;;;;5.96;100.00;100927.85;107920;1253;73896;-69
2023/12/18 09:36:14;;;;;;;36.00;21.80;;;;;;;5.96;100.00;100927.82;107953;1254;71340;-70
2023/12/18 09:38:42;;;;;;;34.90;22.20;;;;;;;5.95;100.00;100926.67;107885;1253;71614;-69
2023/12/18 09:41:09;;;;;;;33.60;22.00;;;;;;;5.93;100.00;100923.19;107887;1256;60144;-69
2023/12/18 09:43:37;;;;;;;33.30;21.60;;;;;;;5.94;100.00;100930.52;107878;1253;60038;-70
2023/12/18 09:46:04;;;;;;;36.20;21.80;;;;;;;5.93;100.00;100929.02;107959;1256;73628;-69
2023/12/18 09:48:33;;;;;;;35.20;21.40;;;;;;;5.95;100.00;100929.70;107646;1253;71735;-70
2023/12/18 09:51:01;;;;;;;34.70;22.20;;;;;;;5.94;100.00;100928.61;107966;1253;73511;-68
2023/12/18 09:53:29;;;;;;;39.00;22.40;;;;;;;5.93;100.00;100928.23;107830;1253;59907;-70
2023/12/18 09:55:56;;;;;;;36.50;22.10;;;;;;;5.90;100.00;100929.95;107898;1253;59545;-70
2023/12/18 09:58:24;;;;;;;34.50;21.00;;;;;;;5.91;100.00;100927.10;108031;1254;71833;-69
2023/12/18 10:00:52;;;;;;;34.70;21.30;;;;;;;5.92;100.00;100924.89;107927;1253;72608;-68
2023/12/18 10:03:20;;;;;;;32.10;20.00;;;;;;;5.93;100.00;100922.03;107832;1254;71564;-69
2023/12/18 10:05:48;;;;;;;34.40;22.20;;;;;;;5.91;100.00;100924.93;107918;1253;59584;-70
2023/12/18 10:08:16;;;;;;;34.30;21.50;;;;;;;5.91;100.00;100921.59;107998;1254;61059;-68
2023/12/18 10:10:44;;;;;;;33.80;21.40;;;;;;;5.92;100.00;100920.20;107963;1254;71598;-68
2023/12/18 10:13:12;;;;;;;31.30;20.30;;;;;;;5.95;100.00;100917.51;107892;1254;75045;-68
2023/12/18 10:15:42;;;;;;;31.30;20.00;;;;;;;5.96;100.00;100922.64;107949;1253;72452;-69
2023/12/18 10:18:10;;;;;;;30.80;19.60;;;;;;;5.98;100.00;100922.48;107975;1253;59580;-69
2023/12/18 10:20:38;;;;;;;29.80;19.20;;;;;;;6.03;100.00;100915.75;108053;1253;59249;-69
2023/12/18 10:23:07;;;;;;;29.20;20.30;;;;;;;6.07;100.00;100915.35;107923;1253;71607;-68
2023/12/18 10:25:36;;;;;;;32.70;20.40;;;;;;;6.08;100.00;100911.98;108021;1253;72723;-67
2023/12/18 10:28:05;;;;;;;31.30;20.00;;;;;;;6.08;100.00;100915.95;108043;1253;72781;-70
2023/12/18 10:30:36;;;;;;;32.50;22.00;;;;;;;6.07;100.00;100914.49;108087;1253;61841;-70
2023/12/18 10:33:06;;;;;;;31.80;21.10;;;;;;;6.07;100.00;100914.98;108069;1253;62339;-69
2023/12/18 10:35:34;;;;;;;32.30;20.50;;;;;;;6.06;100.00;100910.44;107882;1252;73116;-69
2023/12/18 10:38:02;;;;;;;34.90;21.20;;;;;;;6.06;100.00;100909.17;107925;1253;71164;-68
2023/12/18 10:40:30;;;;;;;32.60;21.60;;;;;;;6.06;100.00;100913.70;107826;1253;71928;-70
2023/12/18 10:43:04;;;;;;;31.70;20.60;;;;;;;6.06;100.00;100906.27;107879;1253;60955;-69
2023/12/18 10:45:33;;;;;;;33.50;21.30;;;;;;;6.07;100.00;100908.66;107935;1253;59964;-69
2023/12/18 10:48:01;;;;;;;31.20;21.10;;;;;;;6.07;100.00;100906.54;107963;1253;73129;-68
2023/12/18 10:50:33;;;;;;;30.70;19.90;;;;;;;6.09;100.00;100907.92;107930;1253;72227;-69
2023/12/18 10:53:01;;;;;;;32.90;20.80;;;;;;;6.11;100.00;100915.27;107954;1254;71488;-70
2023/12/18 10:55:28;;;;;;;29.40;20.40;;;;;;;6.17;100.00;100914.73;107997;1253;61756;-71
2023/12/18 10:57:58;;;;;;;29.30;19.30;;;;;;;6.19;100.00;100914.72;108003;1253;59952;-68
2023/12/18 11:00:26;;;;;;;28.70;19.50;;;;;;;6.19;100.00;100915.33;108537;1253;75321;-69
2023/12/18 11:02:55;;;;;;;31.00;20.70;;;;;;;6.18;100.00;100917.38;108104;1257;72521;-68
2023/12/18 11:05:23;;;;;;;32.50;20.20;;;;;;;6.16;100.00;100918.29;107983;1253;72913;-69
2023/12/18 11:07:51;;;;;;;28.10;19.00;;;;;;;6.15;100.00;100917.29;108009;1253;60479;-71
2023/12/18 11:10:20;;;;;;;25.20;17.90;;;;;;;6.11;100.00;100916.49;107919;1253;59532;-70
2023/12/18 11:12:47;;;;;;;28.90;19.10;;;;;;;6.10;100.00;100916.88;107988;1253;71777;-69
2023/12/18 11:15:24;;;;;;;27.10;18.90;;;;;;;6.07;100.00;100919.92;107853;1256;70458;-68
2023/12/18 11:18:04;;;;;;;25.80;18.30;;;;;;;6.08;100.00;100920.20;107995;1252;72434;-70
2023/12/18 11:20:37;;;;;;;27.90;18.90;;;;;;;6.09;100.00;100920.36;108063;1253;61204;-70